sensor_id;sensor_type;location;lat;lon;timestamp;temperature;humidity
10864;DHT22;5485;37.558;126.950;2023-03-14T00:01:46;12.30;1.00
10864;DHT22;5485;37.558;126.950;2023-03-14T00:04:17;12.80;1.00
10864;DHT22;5485;37.558;126.950;2023-03-14T00:06:54;13.30;1.00
10864;DHT22;5485;37.558;126.950;2023-03-14T00:09:21;13.50;1.00
10864;DHT22;5485;37.558;126.950;2023-03-14T00:11:48;13.40;1.00
10864;DHT22;5485;37.558;126.950;2023-03-14T00:14:15;13.70;1.00
10864;DHT22;5485;37.558;126.950;2023-03-14T00:16:46;13.30;1.00
10864;DHT22;5485;37.558;126.950;2023-03-14T00:19:13;12.80;1.00
10864;DHT22;5485;37.558;126.950;2023-03-14T00:21:40;12.90;1.00
10864;DHT22;5485;37.558;126.950;2023-03-14T00:24:08;13.50;1.00
10864;DHT22;5485;37.558;126.950;2023-03-14T00:26:34;13.30;1.00
10864;DHT22;5485;37.558;126.950;2023-03-14T00:29:04;13.70;1.00
10864;DHT22;5485;37.558;126.950;2023-03-14T00:31:31;14.00;1.00
10864;DHT22;5485;37.558;126.950;2023-03-14T00:33:58;14.60;1.00
10864;DHT22;5485;37.558;126.950;2023-03-14T00:36:25;15.00;1.00
10864;DHT22;5485;37.558;126.950;2023-03-14T00:38:52;14.90;1.00
10864;DHT22;5485;37.558;126.950;2023-03-14T00:41:22;15.20;1.00
10864;DHT22;5485;37.558;126.950;2023-03-14T00:43:49;15.30;1.00
10864;DHT22;5485;37.558;126.950;2023-03-14T00:46:18;15.50;1.00
10864;DHT22;5485;37.558;126.950;2023-03-14T00:48:46;15.90;1.00
10864;DHT22;5485;37.558;126.950;2023-03-14T00:51:13;15.70;1.00
10864;DHT22;5485;37.558;126.950;2023-03-14T00:53:41;15.50;1.00
10864;DHT22;5485;37.558;126.950;2023-03-14T00:56:10;15.90;1.00
10864;DHT22;5485;37.558;126.950;2023-03-14T00:58:38;16.10;1.00
10864;DHT22;5485;37.558;126.950;2023-03-14T01:01:10;16.20;1.00
10864;DHT22;5485;37.558;126.950;2023-03-14T01:03:37;16.10;1.00
10864;DHT22;5485;37.558;126.950;2023-03-14T01:06:14;16.20;1.00
10864;DHT22;5485;37.558;126.950;2023-03-14T01:08:41;16.70;1.00
10864;DHT22;5485;37.558;126.950;2023-03-14T01:11:14;16.60;1.00
10864;DHT22;5485;37.558;126.950;2023-03-14T01:13:42;16.40;1.00
10864;DHT22;5485;37.558;126.950;2023-03-14T01:16:10;16.20;1.00
10864;DHT22;5485;37.558;126.950;2023-03-14T01:18:39;16.10;1.00
10864;DHT22;5485;37.558;126.950;2023-03-14T01:21:27;15.80;1.00
10864;DHT22;5485;37.558;126.950;2023-03-14T01:23:56;15.50;1.00
10864;DHT22;5485;37.558;126.950;2023-03-14T01:26:25;15.50;1.00
10864;DHT22;5485;37.558;126.950;2023-03-14T01:28:54;15.50;1.00
10864;DHT22;5485;37.558;126.950;2023-03-14T01:31:21;15.40;1.00
10864;DHT22;5485;37.558;126.950;2023-03-14T01:33:48;15.20;1.00
10864;DHT22;5485;37.558;126.950;2023-03-14T01:36:18;14.60;1.00
10864;DHT22;5485;37.558;126.950;2023-03-14T01:38:48;14.50;1.00
10864;DHT22;5485;37.558;126.950;2023-03-14T01:41:18;14.50;1.00
10864;DHT22;5485;37.558;126.950;2023-03-14T01:43:46;14.60;1.00
10864;DHT22;5485;37.558;126.950;2023-03-14T01:51:33;14.00;1.00
10864;DHT22;5485;37.558;126.950;2023-03-14T01:54:16;14.00;1.00
10864;DHT22;5485;37.558;126.950;2023-03-14T01:56:53;14.00;1.00
10864;DHT22;5485;37.558;126.950;2023-03-14T01:59:22;13.70;1.00
10864;DHT22;5485;37.558;126.950;2023-03-14T02:01:50;13.30;1.00
10864;DHT22;5485;37.558;126.950;2023-03-14T02:04:18;13.60;1.00
10864;DHT22;5485;37.558;126.950;2023-03-14T02:09:46;13.80;1.00
10864;DHT22;5485;37.558;126.950;2023-03-14T02:12:16;13.70;1.00
10864;DHT22;5485;37.558;126.950;2023-03-14T02:14:47;13.60;1.00
10864;DHT22;5485;37.558;126.950;2023-03-14T02:17:16;13.80;1.00
10864;DHT22;5485;37.558;126.950;2023-03-14T02:20:12;13.90;1.00
10864;DHT22;5485;37.558;126.950;2023-03-14T02:22:42;14.10;1.00
10864;DHT22;5485;37.558;126.950;2023-03-14T02:28:21;14.00;1.00
10864;DHT22;5485;37.558;126.950;2023-03-14T02:30:48;14.10;1.00
10864;DHT22;5485;37.558;126.950;2023-03-14T02:33:20;14.20;1.00
10864;DHT22;5485;37.558;126.950;2023-03-14T02:35:51;14.50;1.00
10864;DHT22;5485;37.558;126.950;2023-03-14T02:38:24;14.60;1.00
10864;DHT22;5485;37.558;126.950;2023-03-14T02:40:53;14.80;1.00
10864;DHT22;5485;37.558;126.950;2023-03-14T02:43:20;15.10;1.00
10864;DHT22;5485;37.558;126.950;2023-03-14T02:45:48;14.70;1.00
10864;DHT22;5485;37.558;126.950;2023-03-14T02:48:25;14.80;1.00
10864;DHT22;5485;37.558;126.950;2023-03-14T02:50:55;14.90;1.00
10864;DHT22;5485;37.558;126.950;2023-03-14T02:53:26;14.80;1.00
10864;DHT22;5485;37.558;126.950;2023-03-14T02:55:53;14.70;1.00
10864;DHT22;5485;37.558;126.950;2023-03-14T02:58:20;14.50;1.00
10864;DHT22;5485;37.558;126.950;2023-03-14T03:00:47;14.30;1.00
10864;DHT22;5485;37.558;126.950;2023-03-14T03:03:17;14.30;1.00
10864;DHT22;5485;37.558;126.950;2023-03-14T03:05:47;14.30;1.00
10864;DHT22;5485;37.558;126.950;2023-03-14T03:08:14;14.30;1.00
10864;DHT22;5485;37.558;126.950;2023-03-14T03:10:41;14.20;1.00
10864;DHT22;5485;37.558;126.950;2023-03-14T03:13:08;14.10;1.00
10864;DHT22;5485;37.558;126.950;2023-03-14T03:15:35;14.10;1.00
10864;DHT22;5485;37.558;126.950;2023-03-14T03:18:02;13.90;1.00
10864;DHT22;5485;37.558;126.950;2023-03-14T03:20:29;13.90;1.00
10864;DHT22;5485;37.558;126.950;2023-03-14T03:22:56;13.90;1.00
10864;DHT22;5485;37.558;126.950;2023-03-14T03:25:22;13.90;1.00
10864;DHT22;5485;37.558;126.950;2023-03-14T03:27:49;14.10;1.00
10864;DHT22;5485;37.558;126.950;2023-03-14T03:30:22;14.30;1.00
10864;DHT22;5485;37.558;126.950;2023-03-14T03:32:55;14.50;1.00
10864;DHT22;5485;37.558;126.950;2023-03-14T03:35:22;14.50;1.00
10864;DHT22;5485;37.558;126.950;2023-03-14T03:37:49;14.60;1.00
10864;DHT22;5485;37.558;126.950;2023-03-14T03:40:16;14.50;1.00
10864;DHT22;5485;37.558;126.950;2023-03-14T03:42:43;14.60;1.00
10864;DHT22;5485;37.558;126.950;2023-03-14T03:45:16;14.50;1.00
10864;DHT22;5485;37.558;126.950;2023-03-14T03:47:43;14.70;1.00
10864;DHT22;5485;37.558;126.950;2023-03-14T03:50:10;14.70;1.00
10864;DHT22;5485;37.558;126.950;2023-03-14T03:52:37;14.60;1.00
10864;DHT22;5485;37.558;126.950;2023-03-14T03:55:04;14.60;1.00
10864;DHT22;5485;37.558;126.950;2023-03-14T03:57:31;14.70;1.00
10864;DHT22;5485;37.558;126.950;2023-03-14T03:59:58;14.70;1.00
10864;DHT22;5485;37.558;126.950;2023-03-14T04:02:31;14.60;1.00
10864;DHT22;5485;37.558;126.950;2023-03-14T04:04:58;14.20;1.00
10864;DHT22;5485;37.558;126.950;2023-03-14T04:07:24;14.30;1.00
10864;DHT22;5485;37.558;126.950;2023-03-14T04:09:51;14.50;1.00
10864;DHT22;5485;37.558;126.950;2023-03-14T04:12:18;14.70;1.00
10864;DHT22;5485;37.558;126.950;2023-03-14T04:14:45;14.70;1.00
10864;DHT22;5485;37.558;126.950;2023-03-14T04:17:13;14.80;1.00
10864;DHT22;5485;37.558;126.950;2023-03-14T04:19:39;14.60;1.00
10864;DHT22;5485;37.558;126.950;2023-03-14T04:22:08;14.50;1.00
10864;DHT22;5485;37.558;126.950;2023-03-14T04:24:35;14.60;1.00
10864;DHT22;5485;37.558;126.950;2023-03-14T04:27:02;14.60;1.00
10864;DHT22;5485;37.558;126.950;2023-03-14T04:29:29;14.50;1.00
10864;DHT22;5485;37.558;126.950;2023-03-14T04:31:56;14.50;1.00
10864;DHT22;5485;37.558;126.950;2023-03-14T04:34:23;14.50;1.00
10864;DHT22;5485;37.558;126.950;2023-03-14T04:36:50;14.70;1.00
10864;DHT22;5485;37.558;126.950;2023-03-14T04:39:17;14.60;1.00
10864;DHT22;5485;37.558;126.950;2023-03-14T04:41:45;14.70;1.00
10864;DHT22;5485;37.558;126.950;2023-03-14T04:44:14;14.80;1.00
10864;DHT22;5485;37.558;126.950;2023-03-14T04:46:41;14.80;1.00
10864;DHT22;5485;37.558;126.950;2023-03-14T04:49:08;15.00;1.00
10864;DHT22;5485;37.558;126.950;2023-03-14T04:51:35;15.00;1.00
10864;DHT22;5485;37.558;126.950;2023-03-14T04:54:02;15.10;1.00
10864;DHT22;5485;37.558;126.950;2023-03-14T04:56:29;15.00;1.00
10864;DHT22;5485;37.558;126.950;2023-03-14T04:58:58;14.80;1.00
10864;DHT22;5485;37.558;126.950;2023-03-14T05:01:25;15.00;1.00
10864;DHT22;5485;37.558;126.950;2023-03-14T05:03:52;15.10;1.00
10864;DHT22;5485;37.558;126.950;2023-03-14T05:06:23;15.00;1.00
10864;DHT22;5485;37.558;126.950;2023-03-14T05:08:50;14.90;1.00
10864;DHT22;5485;37.558;126.950;2023-03-14T05:11:17;14.80;1.00
10864;DHT22;5485;37.558;126.950;2023-03-14T05:13:47;14.80;1.00
10864;DHT22;5485;37.558;126.950;2023-03-14T05:16:16;14.90;1.00
10864;DHT22;5485;37.558;126.950;2023-03-14T05:18:43;14.90;1.00
10864;DHT22;5485;37.558;126.950;2023-03-14T05:21:10;14.80;1.00
10864;DHT22;5485;37.558;126.950;2023-03-14T05:23:37;14.90;1.00
10864;DHT22;5485;37.558;126.950;2023-03-14T05:26:04;14.60;1.00
10864;DHT22;5485;37.558;126.950;2023-03-14T05:28:31;14.50;1.00
10864;DHT22;5485;37.558;126.950;2023-03-14T05:30:58;14.50;1.00
10864;DHT22;5485;37.558;126.950;2023-03-14T05:33:24;14.50;1.00
10864;DHT22;5485;37.558;126.950;2023-03-14T05:35:51;14.50;1.00
10864;DHT22;5485;37.558;126.950;2023-03-14T05:38:18;14.50;1.00
10864;DHT22;5485;37.558;126.950;2023-03-14T05:40:51;14.50;1.00
10864;DHT22;5485;37.558;126.950;2023-03-14T05:43:18;14.50;1.00
10864;DHT22;5485;37.558;126.950;2023-03-14T05:45:45;14.60;1.00
10864;DHT22;5485;37.558;126.950;2023-03-14T05:48:12;14.70;1.00
10864;DHT22;5485;37.558;126.950;2023-03-14T05:50:38;14.70;1.00
10864;DHT22;5485;37.558;126.950;2023-03-14T05:53:05;14.60;1.00
10864;DHT22;5485;37.558;126.950;2023-03-14T05:55:32;14.70;1.00
10864;DHT22;5485;37.558;126.950;2023-03-14T05:57:59;14.70;1.00
10864;DHT22;5485;37.558;126.950;2023-03-14T06:00:26;14.60;1.00
10864;DHT22;5485;37.558;126.950;2023-03-14T06:02:53;14.60;1.00
10864;DHT22;5485;37.558;126.950;2023-03-14T06:05:20;14.60;1.00
10864;DHT22;5485;37.558;126.950;2023-03-14T06:07:47;14.60;1.00
10864;DHT22;5485;37.558;126.950;2023-03-14T06:10:15;14.60;1.00
10864;DHT22;5485;37.558;126.950;2023-03-14T06:12:45;14.70;1.00
10864;DHT22;5485;37.558;126.950;2023-03-14T06:15:11;14.70;1.00
10864;DHT22;5485;37.558;126.950;2023-03-14T06:17:38;14.70;1.00
10864;DHT22;5485;37.558;126.950;2023-03-14T06:20:09;14.80;1.00
10864;DHT22;5485;37.558;126.950;2023-03-14T06:22:36;14.90;1.00
10864;DHT22;5485;37.558;126.950;2023-03-14T06:25:04;14.90;1.00
10864;DHT22;5485;37.558;126.950;2023-03-14T06:27:35;14.80;1.00
10864;DHT22;5485;37.558;126.950;2023-03-14T06:30:01;14.70;1.00
10864;DHT22;5485;37.558;126.950;2023-03-14T06:32:29;14.70;1.00
10864;DHT22;5485;37.558;126.950;2023-03-14T06:34:56;14.70;1.00
10864;DHT22;5485;37.558;126.950;2023-03-14T06:37:28;14.60;1.00
10864;DHT22;5485;37.558;126.950;2023-03-14T06:39:55;14.70;1.00
10864;DHT22;5485;37.558;126.950;2023-03-14T06:42:22;14.70;1.00
10864;DHT22;5485;37.558;126.950;2023-03-14T06:44:49;14.80;1.00
10864;DHT22;5485;37.558;126.950;2023-03-14T06:47:24;14.70;1.00
10864;DHT22;5485;37.558;126.950;2023-03-14T06:49:51;14.60;1.00
10864;DHT22;5485;37.558;126.950;2023-03-14T06:52:18;14.60;1.00
10864;DHT22;5485;37.558;126.950;2023-03-14T06:54:45;14.50;1.00
10864;DHT22;5485;37.558;126.950;2023-03-14T06:57:12;14.50;1.00
10864;DHT22;5485;37.558;126.950;2023-03-14T06:59:38;14.50;1.00
10864;DHT22;5485;37.558;126.950;2023-03-14T07:02:11;14.60;1.00
10864;DHT22;5485;37.558;126.950;2023-03-14T07:04:39;14.50;1.00
10864;DHT22;5485;37.558;126.950;2023-03-14T07:07:07;14.50;1.00
10864;DHT22;5485;37.558;126.950;2023-03-14T07:09:36;14.50;1.00
10864;DHT22;5485;37.558;126.950;2023-03-14T07:12:03;14.50;1.00
10864;DHT22;5485;37.558;126.950;2023-03-14T07:14:33;14.40;1.00
10864;DHT22;5485;37.558;126.950;2023-03-14T07:17:00;14.30;1.00
10864;DHT22;5485;37.558;126.950;2023-03-14T07:19:26;14.20;1.00
10864;DHT22;5485;37.558;126.950;2023-03-14T07:21:56;14.10;1.00
10864;DHT22;5485;37.558;126.950;2023-03-14T07:24:26;14.10;1.00
10864;DHT22;5485;37.558;126.950;2023-03-14T07:26:53;14.10;1.00
10864;DHT22;5485;37.558;126.950;2023-03-14T07:29:23;14.10;1.00
10864;DHT22;5485;37.558;126.950;2023-03-14T07:31:50;14.10;1.00
10864;DHT22;5485;37.558;126.950;2023-03-14T07:34:16;14.20;1.00
10864;DHT22;5485;37.558;126.950;2023-03-14T07:36:43;14.20;1.00
10864;DHT22;5485;37.558;126.950;2023-03-14T07:39:10;14.10;1.00
10864;DHT22;5485;37.558;126.950;2023-03-14T07:41:37;14.20;1.00
10864;DHT22;5485;37.558;126.950;2023-03-14T07:44:04;14.10;1.00
10864;DHT22;5485;37.558;126.950;2023-03-14T07:46:31;14.10;1.00
10864;DHT22;5485;37.558;126.950;2023-03-14T07:48:58;14.10;1.00
10864;DHT22;5485;37.558;126.950;2023-03-14T07:51:24;14.20;1.00
10864;DHT22;5485;37.558;126.950;2023-03-14T07:53:51;14.30;1.00
10864;DHT22;5485;37.558;126.950;2023-03-14T07:56:18;14.30;1.00
10864;DHT22;5485;37.558;126.950;2023-03-14T07:58:45;14.30;1.00
10864;DHT22;5485;37.558;126.950;2023-03-14T08:01:12;14.30;1.00
10864;DHT22;5485;37.558;126.950;2023-03-14T08:03:39;14.40;1.00
10864;DHT22;5485;37.558;126.950;2023-03-14T08:06:06;14.40;1.00
10864;DHT22;5485;37.558;126.950;2023-03-14T08:08:33;14.40;1.00
10864;DHT22;5485;37.558;126.950;2023-03-14T08:11:04;14.20;1.00
10864;DHT22;5485;37.558;126.950;2023-03-14T08:13:32;14.10;1.00
10864;DHT22;5485;37.558;126.950;2023-03-14T08:15:59;14.10;1.00
10864;DHT22;5485;37.558;126.950;2023-03-14T08:18:25;13.90;1.00
10864;DHT22;5485;37.558;126.950;2023-03-14T08:20:52;13.90;1.00
10864;DHT22;5485;37.558;126.950;2023-03-14T08:23:19;13.90;1.00
10864;DHT22;5485;37.558;126.950;2023-03-14T08:25:49;13.90;1.00
10864;DHT22;5485;37.558;126.950;2023-03-14T08:28:23;13.90;1.00
10864;DHT22;5485;37.558;126.950;2023-03-14T08:30:49;13.80;1.00
10864;DHT22;5485;37.558;126.950;2023-03-14T08:33:16;13.80;1.00
10864;DHT22;5485;37.558;126.950;2023-03-14T08:35:43;13.80;1.00
10864;DHT22;5485;37.558;126.950;2023-03-14T08:38:10;13.70;1.00
10864;DHT22;5485;37.558;126.950;2023-03-14T08:40:37;13.60;1.00
10864;DHT22;5485;37.558;126.950;2023-03-14T08:43:04;13.60;1.00
10864;DHT22;5485;37.558;126.950;2023-03-14T08:45:30;13.60;1.00
10864;DHT22;5485;37.558;126.950;2023-03-14T08:47:58;13.60;1.00
10864;DHT22;5485;37.558;126.950;2023-03-14T08:50:25;13.50;1.00
10864;DHT22;5485;37.558;126.950;2023-03-14T08:52:54;13.50;1.00
10864;DHT22;5485;37.558;126.950;2023-03-14T08:55:23;13.50;1.00
10864;DHT22;5485;37.558;126.950;2023-03-14T08:57:50;13.50;1.00
10864;DHT22;5485;37.558;126.950;2023-03-14T09:00:17;13.40;1.00
10864;DHT22;5485;37.558;126.950;2023-03-14T09:02:45;13.20;1.00
10864;DHT22;5485;37.558;126.950;2023-03-14T09:05:12;13.20;1.00
10864;DHT22;5485;37.558;126.950;2023-03-14T09:07:40;13.10;1.00
10864;DHT22;5485;37.558;126.950;2023-03-14T09:10:08;12.90;1.00
10864;DHT22;5485;37.558;126.950;2023-03-14T09:12:36;12.90;1.00
10864;DHT22;5485;37.558;126.950;2023-03-14T09:15:03;12.80;1.00
10864;DHT22;5485;37.558;126.950;2023-03-14T09:17:30;12.70;1.00
10864;DHT22;5485;37.558;126.950;2023-03-14T09:19:57;12.60;1.00
10864;DHT22;5485;37.558;126.950;2023-03-14T09:22:24;12.50;1.00
10864;DHT22;5485;37.558;126.950;2023-03-14T09:24:52;12.40;1.00
10864;DHT22;5485;37.558;126.950;2023-03-14T09:27:19;12.30;1.00
10864;DHT22;5485;37.558;126.950;2023-03-14T09:29:45;12.20;1.00
10864;DHT22;5485;37.558;126.950;2023-03-14T09:32:12;12.20;1.00
10864;DHT22;5485;37.558;126.950;2023-03-14T09:34:39;12.10;1.00
10864;DHT22;5485;37.558;126.950;2023-03-14T09:37:06;12.00;1.00
10864;DHT22;5485;37.558;126.950;2023-03-14T09:39:33;12.00;1.00
10864;DHT22;5485;37.558;126.950;2023-03-14T09:42:04;11.90;1.00
10864;DHT22;5485;37.558;126.950;2023-03-14T09:44:36;11.70;1.00
10864;DHT22;5485;37.558;126.950;2023-03-14T09:47:07;11.70;1.00
10864;DHT22;5485;37.558;126.950;2023-03-14T09:49:39;11.70;1.00
10864;DHT22;5485;37.558;126.950;2023-03-14T09:52:19;11.60;1.00
10864;DHT22;5485;37.558;126.950;2023-03-14T09:54:57;11.50;1.00
10864;DHT22;5485;37.558;126.950;2023-03-14T09:57:26;11.40;1.00
10864;DHT22;5485;37.558;126.950;2023-03-14T10:00:04;11.50;1.00
10864;DHT22;5485;37.558;126.950;2023-03-14T10:02:46;11.40;1.00
10864;DHT22;5485;37.558;126.950;2023-03-14T10:05:18;11.40;1.00
10864;DHT22;5485;37.558;126.950;2023-03-14T10:07:47;11.20;1.00
10864;DHT22;5485;37.558;126.950;2023-03-14T10:10:19;11.20;1.00
10864;DHT22;5485;37.558;126.950;2023-03-14T10:12:58;11.20;1.00
10864;DHT22;5485;37.558;126.950;2023-03-14T10:15:34;11.10;1.00
10864;DHT22;5485;37.558;126.950;2023-03-14T10:18:02;11.00;1.00
10864;DHT22;5485;37.558;126.950;2023-03-14T10:20:34;11.00;1.00
10864;DHT22;5485;37.558;126.950;2023-03-14T10:25:33;10.80;1.00
10864;DHT22;5485;37.558;126.950;2023-03-14T10:28:00;10.70;1.00
10864;DHT22;5485;37.558;126.950;2023-03-14T10:32:57;10.50;1.00
10864;DHT22;5485;37.558;126.950;2023-03-14T10:35:34;10.50;1.00
10864;DHT22;5485;37.558;126.950;2023-03-14T10:38:03;10.50;1.00
10864;DHT22;5485;37.558;126.950;2023-03-14T10:40:38;10.50;1.00
10864;DHT22;5485;37.558;126.950;2023-03-14T10:43:11;10.50;1.00
10864;DHT22;5485;37.558;126.950;2023-03-14T10:45:43;10.40;1.00
10864;DHT22;5485;37.558;126.950;2023-03-14T10:51:03;10.40;1.00
10864;DHT22;5485;37.558;126.950;2023-03-14T10:56:25;10.40;1.00
10864;DHT22;5485;37.558;126.950;2023-03-14T10:58:55;10.30;1.00
10864;DHT22;5485;37.558;126.950;2023-03-14T11:01:47;10.30;1.00
10864;DHT22;5485;37.558;126.950;2023-03-14T11:12:34;10.30;1.00
10864;DHT22;5485;37.558;126.950;2023-03-14T11:23:42;10.20;1.00
10864;DHT22;5485;37.558;126.950;2023-03-14T11:28:50;10.00;1.00
10864;DHT22;5485;37.558;126.950;2023-03-14T11:31:31;10.00;1.00
10864;DHT22;5485;37.558;126.950;2023-03-14T11:34:15;10.00;1.00
10864;DHT22;5485;37.558;126.950;2023-03-14T11:37:28;10.00;1.00
10864;DHT22;5485;37.558;126.950;2023-03-14T11:40:19;9.90;1.00
10864;DHT22;5485;37.558;126.950;2023-03-14T11:43:08;9.90;1.00
10864;DHT22;5485;37.558;126.950;2023-03-14T11:45:39;9.80;1.00
10864;DHT22;5485;37.558;126.950;2023-03-14T11:48:36;9.80;1.00
10864;DHT22;5485;37.558;126.950;2023-03-14T11:51:16;9.80;1.00
10864;DHT22;5485;37.558;126.950;2023-03-14T11:59:38;9.50;1.00
10864;DHT22;5485;37.558;126.950;2023-03-14T12:02:44;9.50;1.00
10864;DHT22;5485;37.558;126.950;2023-03-14T12:10:39;9.40;1.00
10864;DHT22;5485;37.558;126.950;2023-03-14T12:13:15;9.40;1.00
10864;DHT22;5485;37.558;126.950;2023-03-14T12:15:58;9.30;1.00
10864;DHT22;5485;37.558;126.950;2023-03-14T12:18:36;9.40;1.00
10864;DHT22;5485;37.558;126.950;2023-03-14T12:21:07;9.50;1.00
10864;DHT22;5485;37.558;126.950;2023-03-14T12:23:49;9.70;1.00
10864;DHT22;5485;37.558;126.950;2023-03-14T12:26:20;9.60;1.00
10864;DHT22;5485;37.558;126.950;2023-03-14T12:29:16;9.60;1.00
10864;DHT22;5485;37.558;126.950;2023-03-14T12:31:45;9.50;1.00
10864;DHT22;5485;37.558;126.950;2023-03-14T12:49:48;9.50;1.00
10864;DHT22;5485;37.558;126.950;2023-03-14T12:52:21;9.40;1.00
10864;DHT22;5485;37.558;126.950;2023-03-14T12:55:10;9.30;1.00
10864;DHT22;5485;37.558;126.950;2023-03-14T12:58:01;9.20;1.00
10864;DHT22;5485;37.558;126.950;2023-03-14T13:00:35;9.10;1.00
10864;DHT22;5485;37.558;126.950;2023-03-14T13:05:57;9.00;1.00
10864;DHT22;5485;37.558;126.950;2023-03-14T13:08:42;9.00;1.00
10864;DHT22;5485;37.558;126.950;2023-03-14T13:11:18;9.00;1.00
10864;DHT22;5485;37.558;126.950;2023-03-14T13:13:57;9.10;1.00
10864;DHT22;5485;37.558;126.950;2023-03-14T13:16:24;9.10;1.00
10864;DHT22;5485;37.558;126.950;2023-03-14T13:19:02;9.10;1.00
10864;DHT22;5485;37.558;126.950;2023-03-14T13:21:37;9.10;1.00
10864;DHT22;5485;37.558;126.950;2023-03-14T13:24:07;9.00;1.00
10864;DHT22;5485;37.558;126.950;2023-03-14T13:26:45;9.10;1.00
10864;DHT22;5485;37.558;126.950;2023-03-14T13:29:33;9.00;1.00
10864;DHT22;5485;37.558;126.950;2023-03-14T13:32:19;9.10;1.00
10864;DHT22;5485;37.558;126.950;2023-03-14T13:34:48;9.10;1.00
10864;DHT22;5485;37.558;126.950;2023-03-14T13:37:21;9.10;1.00
10864;DHT22;5485;37.558;126.950;2023-03-14T13:39:56;9.10;1.00
10864;DHT22;5485;37.558;126.950;2023-03-14T13:42:33;9.10;1.00
10864;DHT22;5485;37.558;126.950;2023-03-14T13:45:00;9.00;1.00
10864;DHT22;5485;37.558;126.950;2023-03-14T13:47:29;9.00;1.00
10864;DHT22;5485;37.558;126.950;2023-03-14T13:49:58;8.90;1.00
10864;DHT22;5485;37.558;126.950;2023-03-14T13:52:36;8.80;1.00
10864;DHT22;5485;37.558;126.950;2023-03-14T13:55:04;8.80;1.00
10864;DHT22;5485;37.558;126.950;2023-03-14T13:57:52;8.70;1.00
10864;DHT22;5485;37.558;126.950;2023-03-14T14:00:28;8.50;1.00
10864;DHT22;5485;37.558;126.950;2023-03-14T14:03:00;8.40;1.00
10864;DHT22;5485;37.558;126.950;2023-03-14T14:05:30;8.40;1.00
10864;DHT22;5485;37.558;126.950;2023-03-14T14:08:10;8.30;1.00
10864;DHT22;5485;37.558;126.950;2023-03-14T14:10:38;8.30;1.00
10864;DHT22;5485;37.558;126.950;2023-03-14T14:13:08;8.20;1.00
10864;DHT22;5485;37.558;126.950;2023-03-14T14:15:41;8.20;1.00
10864;DHT22;5485;37.558;126.950;2023-03-14T14:18:14;8.20;1.00
10864;DHT22;5485;37.558;126.950;2023-03-14T14:20:44;8.10;1.00
10864;DHT22;5485;37.558;126.950;2023-03-14T14:23:14;8.20;1.00
10864;DHT22;5485;37.558;126.950;2023-03-14T14:25:45;8.10;1.00
10864;DHT22;5485;37.558;126.950;2023-03-14T14:28:31;8.20;1.00
10864;DHT22;5485;37.558;126.950;2023-03-14T14:31:22;8.20;1.00
10864;DHT22;5485;37.558;126.950;2023-03-14T14:33:55;8.30;1.00
10864;DHT22;5485;37.558;126.950;2023-03-14T14:41:42;8.20;1.00
10864;DHT22;5485;37.558;126.950;2023-03-14T14:44:16;8.10;1.00
10864;DHT22;5485;37.558;126.950;2023-03-14T14:46:46;8.10;1.00
10864;DHT22;5485;37.558;126.950;2023-03-14T14:49:14;8.10;1.00
10864;DHT22;5485;37.558;126.950;2023-03-14T14:51:50;8.10;1.00
10864;DHT22;5485;37.558;126.950;2023-03-14T14:54:19;8.00;1.00
10864;DHT22;5485;37.558;126.950;2023-03-14T14:56:52;8.00;1.00
10864;DHT22;5485;37.558;126.950;2023-03-14T14:59:23;8.00;1.00
10864;DHT22;5485;37.558;126.950;2023-03-14T15:01:54;8.00;1.00
10864;DHT22;5485;37.558;126.950;2023-03-14T15:04:21;8.10;1.00
10864;DHT22;5485;37.558;126.950;2023-03-14T15:06:49;8.10;1.00
10864;DHT22;5485;37.558;126.950;2023-03-14T15:09:19;8.10;1.00
10864;DHT22;5485;37.558;126.950;2023-03-14T15:11:47;8.10;1.00
10864;DHT22;5485;37.558;126.950;2023-03-14T15:14:14;8.00;1.00
10864;DHT22;5485;37.558;126.950;2023-03-14T15:16:41;8.00;1.00
10864;DHT22;5485;37.558;126.950;2023-03-14T15:19:20;7.90;1.00
10864;DHT22;5485;37.558;126.950;2023-03-14T15:21:47;7.90;1.00
10864;DHT22;5485;37.558;126.950;2023-03-14T15:24:17;7.90;1.00
10864;DHT22;5485;37.558;126.950;2023-03-14T15:26:44;8.00;1.00
10864;DHT22;5485;37.558;126.950;2023-03-14T15:29:12;8.00;1.00
10864;DHT22;5485;37.558;126.950;2023-03-14T15:31:39;8.00;1.00
10864;DHT22;5485;37.558;126.950;2023-03-14T15:34:06;8.00;1.00
10864;DHT22;5485;37.558;126.950;2023-03-14T15:36:34;7.90;1.00
10864;DHT22;5485;37.558;126.950;2023-03-14T15:39:09;7.90;1.00
10864;DHT22;5485;37.558;126.950;2023-03-14T15:41:36;7.90;1.00
10864;DHT22;5485;37.558;126.950;2023-03-14T15:44:03;7.80;1.00
10864;DHT22;5485;37.558;126.950;2023-03-14T15:46:30;7.80;1.00
10864;DHT22;5485;37.558;126.950;2023-03-14T15:49:00;7.80;1.00
10864;DHT22;5485;37.558;126.950;2023-03-14T15:51:27;7.70;1.00
10864;DHT22;5485;37.558;126.950;2023-03-14T15:53:53;7.70;1.00
10864;DHT22;5485;37.558;126.950;2023-03-14T15:56:21;7.60;1.00
10864;DHT22;5485;37.558;126.950;2023-03-14T15:58:51;7.50;1.00
10864;DHT22;5485;37.558;126.950;2023-03-14T16:01:37;7.50;1.00
10864;DHT22;5485;37.558;126.950;2023-03-14T16:04:04;7.50;1.00
10864;DHT22;5485;37.558;126.950;2023-03-14T16:06:31;7.50;1.00
10864;DHT22;5485;37.558;126.950;2023-03-14T16:08:58;7.50;1.00
10864;DHT22;5485;37.558;126.950;2023-03-14T16:11:25;7.60;1.00
10864;DHT22;5485;37.558;126.950;2023-03-14T16:13:52;7.60;1.00
10864;DHT22;5485;37.558;126.950;2023-03-14T16:16:19;7.60;1.00
10864;DHT22;5485;37.558;126.950;2023-03-14T16:18:46;7.60;1.00
10864;DHT22;5485;37.558;126.950;2023-03-14T16:21:19;7.60;1.00
10864;DHT22;5485;37.558;126.950;2023-03-14T16:23:46;7.60;1.00
10864;DHT22;5485;37.558;126.950;2023-03-14T16:26:18;7.60;1.00
10864;DHT22;5485;37.558;126.950;2023-03-14T16:28:46;7.50;1.00
10864;DHT22;5485;37.558;126.950;2023-03-14T16:31:16;7.50;1.00
10864;DHT22;5485;37.558;126.950;2023-03-14T16:33:43;7.40;1.00
10864;DHT22;5485;37.558;126.950;2023-03-14T16:36:12;7.40;1.00
10864;DHT22;5485;37.558;126.950;2023-03-14T16:38:41;7.40;1.00
10864;DHT22;5485;37.558;126.950;2023-03-14T16:41:19;7.30;1.00
10864;DHT22;5485;37.558;126.950;2023-03-14T16:43:46;7.30;1.00
10864;DHT22;5485;37.558;126.950;2023-03-14T16:46:18;7.30;1.00
10864;DHT22;5485;37.558;126.950;2023-03-14T16:48:47;7.30;1.00
10864;DHT22;5485;37.558;126.950;2023-03-14T16:51:14;7.30;1.00
10864;DHT22;5485;37.558;126.950;2023-03-14T16:53:42;7.40;1.00
10864;DHT22;5485;37.558;126.950;2023-03-14T16:56:09;7.40;1.00
10864;DHT22;5485;37.558;126.950;2023-03-14T16:58:39;7.40;1.00
10864;DHT22;5485;37.558;126.950;2023-03-14T17:01:07;7.50;1.00
10864;DHT22;5485;37.558;126.950;2023-03-14T17:03:48;7.50;1.00
10864;DHT22;5485;37.558;126.950;2023-03-14T17:06:26;7.50;1.00
10864;DHT22;5485;37.558;126.950;2023-03-14T17:08:55;7.50;1.00
10864;DHT22;5485;37.558;126.950;2023-03-14T17:11:22;7.60;1.00